Time;durP1;ratioP1;P1;durP2;ratioP2;P2;SDS_P1;SDS_P2;PMS_P1;PMS_P2;Temp;Humidity;BMP_temperature;BMP_pressure;BME280_temperature;BME280_humidity;BME280_pressure;Samples;Min_cycle;Max_cycle;Signal;HPM_P1;HPM_P2
2022/01/22 00:00:14;;;;;;;5.87;2.83;;;6.40;99.90;;;;;;5053883;28;20412;-87
2022/01/22 00:02:40;;;;;;;5.27;1.83;;;6.40;99.90;;;;;;5036187;28;20536;-85
2022/01/22 00:05:07;;;;;;;5.93;3.60;;;6.40;99.90;;;;;;5053659;28;20435;-85
2022/01/22 00:07:33;;;;;;;4.93;2.07;;;6.40;99.90;;;;;;5053728;28;20167;-85
2022/01/22 00:10:03;;;;;;;5.57;2.37;;;6.40;99.90;;;;;;5053812;28;20417;-85
2022/01/22 00:15:02;;;;;;;4.33;2.00;;;6.40;99.90;;;;;;5053471;28;20417;-85
2022/01/22 00:17:27;;;;;;;4.20;1.50;;;6.40;99.90;;;;;;5053641;28;20419;-86
2022/01/22 00:19:53;;;;;;;4.90;2.00;;;6.40;99.90;;;;;;5035389;28;20467;-86
2022/01/22 00:22:23;;;;;;;3.67;2.20;;;6.40;99.90;;;;;;5053401;28;20178;-86
2022/01/22 00:24:54;;;;;;;3.93;2.13;;;6.30;99.90;;;;;;5053397;28;20246;-86
2022/01/22 00:27:20;;;;;;;3.17;1.97;;;6.30;99.90;;;;;;5035233;28;20429;-86
2022/01/22 00:29:45;;;;;;;5.00;2.07;;;6.40;99.90;;;;;;5053301;28;20850;-86
2022/01/22 00:32:11;;;;;;;6.73;2.13;;;6.30;99.90;;;;;;5035262;28;20520;-86
2022/01/22 00:34:37;;;;;;;8.17;2.10;;;6.30;99.90;;;;;;5052906;28;20258;-85
2022/01/22 00:37:03;;;;;;;5.07;1.70;;;6.30;99.90;;;;;;5100074;22;20229;-86
2022/01/22 00:39:29;;;;;;;2.93;1.50;;;6.30;99.90;;;;;;5054697;28;20435;-88
2022/01/22 00:41:55;;;;;;;5.53;1.23;;;6.30;99.90;;;;;;5073387;28;20228;-86
2022/01/22 00:44:20;;;;;;;2.90;0.70;;;6.30;99.90;;;;;;5054963;28;20904;-85
2022/01/22 00:46:46;;;;;;;2.30;0.57;;;6.30;99.90;;;;;;5073219;28;20174;-87
2022/01/22 00:49:11;;;;;;;2.87;1.10;;;6.30;99.90;;;;;;5072605;28;20210;-85
2022/01/22 00:51:37;;;;;;;3.00;0.77;;;6.20;99.90;;;;;;5073127;28;20678;-88
2022/01/22 00:54:03;;;;;;;4.70;0.93;;;6.30;99.90;;;;;;5073237;28;20210;-86
2022/01/22 00:56:28;;;;;;;3.57;0.53;;;6.20;99.90;;;;;;5072853;28;20183;-86
2022/01/22 00:58:54;;;;;;;2.43;0.70;;;6.30;99.90;;;;;;5073295;28;20166;-85
2022/01/22 01:01:19;;;;;;;2.20;0.40;;;6.20;99.90;;;;;;5073028;28;20179;-86
2022/01/22 01:03:45;;;;;;;2.00;0.60;;;6.30;99.90;;;;;;5072839;28;20169;-85
2022/01/22 01:06:10;;;;;;;2.40;0.67;;;6.20;99.90;;;;;;5072744;28;20591;-85
2022/01/22 01:08:36;;;;;;;2.67;0.90;;;6.20;99.90;;;;;;5073188;28;20177;-85
2022/01/22 01:11:04;;;;;;;3.23;1.07;;;6.20;99.90;;;;;;5073151;28;20211;-86
2022/01/22 01:13:35;;;;;;;4.17;1.30;;;6.20;99.90;;;;;;5055111;28;20431;-86
2022/01/22 01:16:16;;;;;;;1.90;0.53;;;6.20;99.90;;;;;;5072918;28;20421;-86
2022/01/22 01:32:36;;;;;;;3.20;0.70;;;6.20;99.90;;;;;;5072936;28;20486;-87
2022/01/22 01:35:06;;;;;;;3.70;0.87;;;6.20;99.90;;;;;;5072351;28;20912;-86
2022/01/22 01:37:31;;;;;;;7.63;1.10;;;6.10;99.90;;;;;;5073291;28;20784;-86
2022/01/22 01:40:01;;;;;;;4.77;0.97;;;6.10;99.90;;;;;;5055511;28;20440;-86
2022/01/22 01:42:39;;;;;;;3.53;0.77;;;6.00;99.90;;;;;;5074134;28;20669;-84
2022/01/22 01:45:06;;;;;;;2.90;0.90;;;6.00;99.90;;;;;;5096748;28;20410;-86
2022/01/22 01:47:32;;;;;;;1.80;0.53;;;6.00;99.90;;;;;;5096758;28;20407;-84
2022/01/22 01:49:57;;;;;;;1.53;0.90;;;6.00;99.90;;;;;;5096026;28;20413;-86
2022/01/22 01:52:34;;;;;;;2.53;0.77;;;6.00;99.90;;;;;;5077927;28;20217;-85
2022/01/22 01:55:04;;;;;;;3.10;0.87;;;6.00;99.90;;;;;;5096532;28;20225;-84
2022/01/22 01:57:38;;;;;;;3.00;1.13;;;6.00;99.90;;;;;;5096488;28;20418;-86
2022/01/22 02:00:10;;;;;;;2.00;0.83;;;6.00;99.90;;;;;;5096309;28;20417;-86
2022/01/22 02:02:39;;;;;;;3.27;1.27;;;6.00;99.90;;;;;;5078152;28;20931;-85
2022/01/22 02:05:05;;;;;;;6.23;1.37;;;5.90;99.90;;;;;;5077946;28;20947;-86
2022/01/22 02:07:31;;;;;;;2.07;0.47;;;6.00;99.90;;;;;;5096221;28;20406;-86
2022/01/22 02:09:59;;;;;;;7.10;1.00;;;6.00;99.90;;;;;;5078138;28;20414;-86
2022/01/22 02:25:54;;;;;;;3.60;1.53;;;6.00;99.90;;;;;;5096034;28;20471;-86
2022/01/22 02:28:20;;;;;;;10.43;1.90;;;6.00;99.90;;;;;;5061698;28;20454;-88
2022/01/22 02:30:49;;;;;;;6.43;2.10;;;6.00;99.90;;;;;;5079783;28;20427;-87
2022/01/22 02:35:54;;;;;;;9.83;1.90;;;6.00;99.90;;;;;;5055234;28;20472;-87
2022/01/22 02:38:28;;;;;;;4.77;1.57;;;6.10;99.90;;;;;;5055687;28;20415;-87
2022/01/22 02:40:54;;;;;;;3.67;1.73;;;6.10;99.90;;;;;;5055571;28;20511;-87
2022/01/22 02:43:20;;;;;;;9.00;3.10;;;6.10;99.90;;;;;;5055435;28;20960;-86
2022/01/22 02:45:47;;;;;;;7.17;3.13;;;6.10;99.90;;;;;;5037453;28;20243;-86
2022/01/22 02:48:13;;;;;;;5.93;1.53;;;6.10;99.90;;;;;;5054788;28;20422;-86
2022/01/22 02:50:39;;;;;;;7.43;3.00;;;6.10;99.90;;;;;;5036969;28;20404;-86
2022/01/22 02:53:08;;;;;;;5.80;2.60;;;6.10;99.90;;;;;;5054973;28;20425;-86
2022/01/22 02:55:34;;;;;;;5.97;2.17;;;6.10;99.90;;;;;;5054999;28;20163;-84
2022/01/22 02:58:00;;;;;;;7.87;1.37;;;6.10;99.90;;;;;;5055030;28;20418;-85
2022/01/22 03:00:26;;;;;;;11.93;2.67;;;6.10;99.90;;;;;;5054853;28;20417;-85
2022/01/22 03:02:52;;;;;;;5.23;1.27;;;6.10;99.90;;;;;;5037100;28;20417;-85
2022/01/22 03:05:18;;;;;;;4.83;2.67;;;6.10;99.90;;;;;;5044286;28;20416;-85
2022/01/22 03:07:49;;;;;;;3.23;1.67;;;6.10;99.90;;;;;;5074883;28;20403;-86
2022/01/22 03:10:18;;;;;;;7.80;2.23;;;6.10;99.90;;;;;;5074771;28;20446;-86
2022/01/22 03:12:53;;;;;;;4.83;2.13;;;6.10;99.90;;;;;;5074573;28;20472;-85
2022/01/22 03:29:07;;;;;;;7.93;2.30;;;6.00;99.90;;;;;;5074574;28;20411;-84
2022/01/22 03:31:43;;;;;;;8.43;3.03;;;6.10;99.90;;;;;;5074249;28;20472;-84
2022/01/22 03:34:08;;;;;;;12.27;2.67;;;6.00;99.90;;;;;;5056082;28;20941;-85
2022/01/22 03:36:35;;;;;;;4.60;1.83;;;6.10;99.90;;;;;;5074297;28;20474;-85
2022/01/22 03:39:06;;;;;;;6.53;2.40;;;6.10;99.90;;;;;;5074395;28;20403;-84
2022/01/22 03:41:31;;;;;;;3.50;2.00;;;6.10;99.90;;;;;;5073919;28;20411;-84
2022/01/22 03:43:57;;;;;;;7.47;2.13;;;6.10;99.90;;;;;;5074035;28;20771;-84
2022/01/22 03:46:23;;;;;;;6.13;2.00;;;6.10;99.90;;;;;;5056227;28;20696;-84
2022/01/22 03:48:48;;;;;;;5.13;3.47;;;6.00;99.90;;;;;;5073598;28;20992;-85
2022/01/22 03:51:14;;;;;;;4.60;2.27;;;6.00;99.90;;;;;;5056076;28;20563;-85
2022/01/22 03:53:39;;;;;;;5.57;2.40;;;6.10;99.90;;;;;;5073911;28;20635;-85
2022/01/22 03:56:07;;;;;;;7.20;2.03;;;6.00;99.90;;;;;;5056063;28;20534;-85
2022/01/22 03:58:36;;;;;;;4.03;2.10;;;6.00;99.90;;;;;;5073692;28;20174;-85
2022/01/22 04:01:25;;;;;;;5.23;2.20;;;6.00;99.90;;;;;;5072918;28;20413;-85
2022/01/22 04:04:05;;;;;;;3.93;1.57;;;6.00;99.90;;;;;;5073184;28;20883;-85
2022/01/22 04:09:03;;;;;;;5.40;2.20;;;6.00;99.90;;;;;;5073722;28;20452;-84
2022/01/22 04:11:30;;;;;;;10.87;3.10;;;6.00;99.90;;;;;;5073488;28;20207;-85
2022/01/22 04:14:00;;;;;;;9.13;2.60;;;6.00;99.90;;;;;;5073547;28;20935;-84
2022/01/22 04:16:27;;;;;;;5.43;2.20;;;6.00;99.90;;;;;;5073569;28;20948;-84
2022/01/22 04:27:09;;;;;;;8.30;2.67;;;6.10;99.90;;;;;;5073551;28;20407;-84
2022/01/22 04:29:35;;;;;;;5.77;2.47;;;6.10;99.90;;;;;;5055516;28;20435;-86
2022/01/22 04:32:00;;;;;;;6.60;1.90;;;6.10;99.90;;;;;;5073338;28;20465;-87
2022/01/22 04:34:26;;;;;;;7.93;2.87;;;6.10;99.90;;;;;;5069990;28;20184;-85
2022/01/22 04:36:51;;;;;;;6.07;2.60;;;6.10;99.90;;;;;;5068440;28;20231;-84
2022/01/22 04:39:22;;;;;;;8.03;2.50;;;6.10;99.90;;;;;;5075299;28;20201;-85
2022/01/22 04:41:53;;;;;;;4.17;1.60;;;6.10;99.90;;;;;;5093415;28;20256;-85
2022/01/22 04:44:18;;;;;;;5.93;1.90;;;6.10;99.90;;;;;;5093307;28;20421;-86
2022/01/22 04:52:28;;;;;;;11.37;2.77;;;6.10;99.90;;;;;;5092985;28;20726;-83
2022/01/22 04:55:01;;;;;;;7.60;2.33;;;6.00;99.90;;;;;;5093273;28;20415;-84
2022/01/22 04:57:32;;;;;;;3.83;1.80;;;6.00;99.90;;;;;;5093071;28;20875;-83
2022/01/22 04:59:58;;;;;;;6.13;2.67;;;6.00;99.90;;;;;;5092666;28;20447;-85
2022/01/22 05:02:25;;;;;;;8.63;2.47;;;6.10;99.90;;;;;;5093120;28;20418;-87
2022/01/22 05:04:50;;;;;;;9.03;2.90;;;6.00;99.90;;;;;;5092653;28;20412;-86
2022/01/22 05:07:16;;;;;;;5.23;2.90;;;6.10;99.90;;;;;;5092786;28;20235;-86
2022/01/22 05:09:41;;;;;;;8.40;3.43;;;6.10;99.90;;;;;;5092862;28;20259;-84
2022/01/22 05:12:07;;;;;;;3.43;1.90;;;6.10;99.90;;;;;;5092532;28;20354;-85
2022/01/22 05:14:34;;;;;;;8.13;2.83;;;6.10;99.90;;;;;;5092750;28;20161;-85
2022/01/22 05:17:02;;;;;;;10.47;3.70;;;6.10;99.90;;;;;;5090188;28;20419;-85
2022/01/22 05:19:55;;;;;;;9.70;3.77;;;6.10;99.90;;;;;;5054233;28;20416;-85
2022/01/22 05:22:31;;;;;;;6.63;3.07;;;6.10;99.90;;;;;;5071971;28;20442;-84
2022/01/22 05:25:02;;;;;;;4.10;2.07;;;6.00;99.90;;;;;;5072382;28;20459;-84
2022/01/22 05:30:10;;;;;;;8.00;2.63;;;6.10;99.90;;;;;;5072505;28;20996;-84
2022/01/22 05:32:56;;;;;;;7.20;2.40;;;6.10;99.90;;;;;;5072226;28;20475;-85
2022/01/22 05:38:09;;;;;;;7.93;2.80;;;6.10;99.90;;;;;;5071930;28;21045;-82
2022/01/22 05:40:35;;;;;;;6.47;2.20;;;6.10;99.90;;;;;;5072405;28;20414;-86
2022/01/22 05:43:02;;;;;;;8.13;2.67;;;6.10;99.90;;;;;;5072263;28;20402;-84
2022/01/22 05:45:27;;;;;;;7.77;2.33;;;6.10;99.90;;;;;;5072128;28;20424;-84
2022/01/22 05:47:53;;;;;;;9.20;3.10;;;6.10;99.90;;;;;;5071686;28;20427;-85
2022/01/22 05:53:28;;;;;;;6.17;2.07;;;6.10;99.90;;;;;;5073740;28;20531;-84
2022/01/22 06:01:15;;;;;;;10.60;3.73;;;6.10;99.90;;;;;;5092710;28;20415;-85
2022/01/22 06:03:41;;;;;;;12.53;5.00;;;6.10;99.90;;;;;;5092263;28;20416;-85
2022/01/22 06:06:07;;;;;;;11.07;4.13;;;6.10;99.90;;;;;;5092614;28;20468;-84
2022/01/22 06:08:38;;;;;;;8.00;3.67;;;6.10;99.90;;;;;;5073321;28;20510;-85
2022/01/22 06:11:09;;;;;;;9.33;3.80;;;6.10;99.90;;;;;;5074402;28;20229;-85
2022/01/22 06:13:44;;;;;;;13.20;4.53;;;6.10;99.90;;;;;;5092772;28;20774;-85
2022/01/22 06:16:10;;;;;;;14.47;6.43;;;6.10;99.90;;;;;;5074579;28;20510;-86
2022/01/22 06:18:36;;;;;;;16.20;6.60;;;6.20;99.90;;;;;;5074119;28;20428;-85
2022/01/22 06:21:01;;;;;;;16.87;6.63;;;6.10;99.90;;;;;;5092565;28;20412;-86
2022/01/22 06:23:27;;;;;;;16.07;6.43;;;6.10;99.90;;;;;;5074666;28;20174;-85
2022/01/22 06:26:00;;;;;;;12.20;6.63;;;6.20;99.90;;;;;;5096374;28;20177;-86
2022/01/22 06:28:26;;;;;;;15.57;6.80;;;6.10;99.90;;;;;;5078178;28;20180;-86
2022/01/22 06:30:52;;;;;;;15.87;6.10;;;6.10;99.90;;;;;;5096100;28;20423;-85
2022/01/22 06:33:17;;;;;;;15.90;6.60;;;6.10;99.90;;;;;;5095789;28;20414;-85
2022/01/22 06:35:42;;;;;;;15.67;6.77;;;6.10;99.90;;;;;;5095964;28;20263;-84
2022/01/22 06:38:09;;;;;;;17.37;6.87;;;6.10;99.90;;;;;;5096120;28;20180;-86
2022/01/22 06:43:04;;;;;;;19.50;7.63;;;6.10;99.90;;;;;;5096098;28;20524;-86
2022/01/22 06:45:29;;;;;;;11.30;6.13;;;6.10;99.90;;;;;;5096069;28;20274;-86
2022/01/22 06:47:56;;;;;;;18.53;7.93;;;6.10;99.90;;;;;;5077515;28;20806;-87
2022/01/22 06:50:22;;;;;;;17.07;7.13;;;6.10;99.90;;;;;;5095897;28;20420;-86
2022/01/22 06:52:55;;;;;;;19.63;8.67;;;6.10;99.90;;;;;;5095641;28;20281;-84
2022/01/22 06:55:28;;;;;;;19.80;9.07;;;6.10;99.90;;;;;;5095763;28;20239;-85
2022/01/22 06:57:54;;;;;;;15.70;6.53;;;6.10;99.90;;;;;;5077565;28;20440;-86
2022/01/22 07:00:19;;;;;;;18.20;7.50;;;6.10;99.90;;;;;;5095645;28;20413;-87
2022/01/22 07:02:45;;;;;;;19.40;7.87;;;6.10;99.90;;;;;;5077178;28;20652;-86
2022/01/22 07:05:10;;;;;;;19.27;7.40;;;6.10;99.90;;;;;;5077452;28;20176;-86
2022/01/22 07:07:36;;;;;;;19.70;8.40;;;6.10;99.90;;;;;;5095527;28;20257;-86
2022/01/22 07:10:02;;;;;;;16.00;8.77;;;6.10;99.90;;;;;;5095608;28;20164;-87
2022/01/22 07:12:28;;;;;;;18.80;8.97;;;6.10;99.90;;;;;;5095770;28;20295;-85
2022/01/22 07:14:53;;;;;;;21.73;10.20;;;6.00;99.90;;;;;;5095472;28;20931;-85
2022/01/22 07:17:19;;;;;;;26.03;10.03;;;6.10;99.90;;;;;;5095437;28;20174;-84
2022/01/22 07:19:44;;;;;;;19.90;9.83;;;6.00;99.90;;;;;;5094986;28;20173;-86
2022/01/22 07:23:15;;;;;;;22.00;8.33;;;6.00;99.90;;;;;;5095344;28;20523;-84
2022/01/22 07:25:05;;;;;;;23.40;9.10;;;6.00;99.90;;;;;;5085886;28;20412;-84
2022/01/22 07:27:33;;;;;;;21.20;9.57;;;6.00;99.90;;;;;;5095119;28;20418;-84
2022/01/22 07:29:59;;;;;;;21.57;10.07;;;6.10;99.90;;;;;;5076963;28;20421;-85
2022/01/22 07:32:29;;;;;;;25.73;11.43;;;6.00;99.90;;;;;;5095126;28;20470;-84
2022/01/22 07:34:55;;;;;;;28.30;11.77;;;6.00;99.90;;;;;;5094694;28;20172;-84
2022/01/22 07:37:21;;;;;;;20.80;10.30;;;6.00;99.90;;;;;;5076787;28;20436;-84
2022/01/22 07:39:46;;;;;;;25.47;10.80;;;6.00;99.90;;;;;;5094881;28;20493;-84
2022/01/22 07:42:13;;;;;;;26.00;12.20;;;6.00;99.90;;;;;;5076605;28;20172;-86
2022/01/22 07:44:38;;;;;;;30.30;12.27;;;6.00;99.90;;;;;;5094844;28;20218;-85
2022/01/22 07:47:04;;;;;;;25.17;10.20;;;6.00;99.90;;;;;;5094776;28;20411;-85
2022/01/22 07:49:29;;;;;;;29.63;12.80;;;6.00;99.90;;;;;;5094398;28;20673;-85
2022/01/22 07:51:55;;;;;;;23.03;9.83;;;6.00;99.90;;;;;;5094797;28;20201;-84
2022/01/22 07:54:21;;;;;;;22.33;11.97;;;6.10;99.90;;;;;;5094642;28;20689;-84
2022/01/22 07:56:47;;;;;;;23.20;9.40;;;6.00;99.90;;;;;;5094459;28;20166;-85
2022/01/22 07:59:13;;;;;;;19.50;10.20;;;6.00;99.90;;;;;;5073275;28;20521;-84
2022/01/22 08:01:38;;;;;;;15.20;6.90;;;6.10;99.90;;;;;;5056129;28;20543;-84
2022/01/22 08:04:04;;;;;;;15.53;8.07;;;6.00;99.90;;;;;;5073711;28;20654;-85
2022/01/22 08:06:32;;;;;;;16.03;8.07;;;6.00;99.90;;;;;;5074002;28;20174;-85
2022/01/22 08:08:58;;;;;;;13.80;7.90;;;6.00;99.90;;;;;;5073104;28;20720;-85
2022/01/22 08:11:24;;;;;;;19.47;8.67;;;6.10;99.90;;;;;;5073743;28;20483;-84
2022/01/22 08:13:49;;;;;;;20.13;7.77;;;6.10;99.90;;;;;;5071946;28;20173;-84
2022/01/22 08:16:15;;;;;;;13.70;7.10;;;6.10;99.90;;;;;;5063627;28;20181;-85
2022/01/22 08:18:40;;;;;;;21.10;8.60;;;6.10;99.90;;;;;;5064349;28;20187;-85
2022/01/22 08:21:06;;;;;;;17.30;8.67;;;6.10;99.90;;;;;;5062890;28;20257;-85
2022/01/22 08:23:32;;;;;;;19.20;8.53;;;6.10;99.90;;;;;;5058827;28;20293;-85
2022/01/22 08:25:58;;;;;;;22.77;9.00;;;6.10;99.90;;;;;;5060049;28;20185;-85
2022/01/22 08:31:20;;;;;;;20.67;8.43;;;6.10;99.90;;;;;;5063751;28;20195;-85
2022/01/22 08:36:30;;;;;;;14.23;6.10;;;6.20;99.90;;;;;;5064072;28;20455;-85
2022/01/22 08:38:56;;;;;;;20.90;7.27;;;6.20;99.90;;;;;;5063639;28;20418;-86
2022/01/22 08:41:21;;;;;;;16.10;5.80;;;6.30;99.90;;;;;;5061948;28;20550;-85
2022/01/22 08:43:47;;;;;;;18.23;7.70;;;6.30;99.90;;;;;;5063737;28;20411;-85
2022/01/22 08:46:13;;;;;;;11.10;5.13;;;6.30;99.90;;;;;;5069664;28;20181;-84
2022/01/22 08:48:38;;;;;;;20.23;5.77;;;6.30;99.90;;;;;;5060264;28;20193;-85
2022/01/22 08:51:03;;;;;;;15.17;5.23;;;6.30;99.90;;;;;;5063486;28;20177;-85
2022/01/22 08:53:32;;;;;;;12.93;4.93;;;6.30;99.90;;;;;;5063218;28;20220;-86
2022/01/22 08:56:00;;;;;;;9.87;4.10;;;6.40;99.90;;;;;;5062338;28;20170;-85
2022/01/22 08:58:26;;;;;;;15.90;5.27;;;6.40;99.90;;;;;;5057417;28;20436;-86
2022/01/22 09:00:51;;;;;;;12.30;4.53;;;6.40;99.90;;;;;;5053840;28;20397;-84
2022/01/22 09:03:19;;;;;;;9.33;3.50;;;6.40;99.90;;;;;;5052729;28;20774;-85
2022/01/22 09:05:46;;;;;;;11.60;5.47;;;6.40;99.90;;;;;;5051890;28;20198;-84
2022/01/22 09:08:15;;;;;;;12.13;4.93;;;6.50;99.90;;;;;;5053080;28;20405;-85
2022/01/22 09:10:41;;;;;;;16.80;5.30;;;6.50;99.90;;;;;;5053027;28;20431;-84
2022/01/22 09:13:06;;;;;;;9.23;3.63;;;6.50;99.90;;;;;;5052902;28;20464;-85
2022/01/22 09:15:32;;;;;;;9.37;3.70;;;6.50;99.90;;;;;;5051600;28;20429;-85
2022/01/22 09:17:57;;;;;;;7.47;4.03;;;6.40;99.90;;;;;;5052590;28;20166;-85
2022/01/22 09:20:42;;;;;;;11.40;4.83;;;6.40;99.90;;;;;;5053092;28;20212;-87
2022/01/22 09:23:10;;;;;;;8.87;4.13;;;6.40;99.90;;;;;;5052947;28;20158;-85
2022/01/22 09:25:36;;;;;;;10.93;4.70;;;6.40;99.90;;;;;;5052633;28;20434;-84
2022/01/22 09:28:03;;;;;;;9.27;3.90;;;6.40;99.90;;;;;;5052668;28;20416;-83
2022/01/22 09:30:30;;;;;;;7.43;5.00;;;6.50;99.90;;;;;;5052938;28;20413;-83
2022/01/22 09:32:56;;;;;;;14.30;6.20;;;6.40;99.90;;;;;;5052423;28;20526;-87
2022/01/22 09:35:21;;;;;;;12.00;4.30;;;6.40;99.90;;;;;;5052741;28;20492;-83
2022/01/22 09:37:47;;;;;;;13.27;5.63;;;6.50;99.90;;;;;;5053311;28;20425;-84
2022/01/22 09:40:13;;;;;;;11.07;5.40;;;6.50;99.90;;;;;;5052723;28;20254;-83
2022/01/22 09:42:39;;;;;;;9.83;4.43;;;6.50;99.90;;;;;;5051394;28;20193;-84
2022/01/22 09:45:06;;;;;;;10.70;4.53;;;6.60;99.90;;;;;;5052616;28;20545;-82
2022/01/22 09:47:32;;;;;;;13.57;4.97;;;6.70;99.90;;;;;;5052253;28;20972;-84
2022/01/22 09:49:58;;;;;;;12.67;6.03;;;6.60;99.90;;;;;;5052560;28;20414;-84
2022/01/22 09:52:24;;;;;;;11.30;5.10;;;6.60;99.90;;;;;;5052580;28;20516;-83
2022/01/22 09:54:49;;;;;;;10.33;3.97;;;6.60;99.90;;;;;;5051324;28;20173;-84
2022/01/22 09:57:15;;;;;;;10.03;4.87;;;6.60;99.90;;;;;;5052661;28;20418;-83
2022/01/22 09:59:40;;;;;;;9.73;3.87;;;6.60;99.90;;;;;;5054788;28;20189;-84
2022/01/22 10:02:18;;;;;;;7.70;3.53;;;6.60;99.90;;;;;;5056314;28;20175;-83
2022/01/22 10:04:48;;;;;;;11.00;3.80;;;6.70;99.90;;;;;;5056420;28;20221;-83
2022/01/22 10:07:21;;;;;;;9.27;4.20;;;6.70;99.90;;;;;;5056416;28;20500;-84
2022/01/22 10:10:07;;;;;;;10.40;4.70;;;6.60;99.90;;;;;;5056391;28;20414;-83
2022/01/22 10:12:53;;;;;;;8.90;4.33;;;6.70;99.90;;;;;;5056333;28;20526;-84
2022/01/22 10:15:20;;;;;;;10.20;4.60;;;6.70;99.90;;;;;;5054403;28;20416;-83
2022/01/22 10:17:51;;;;;;;16.83;4.57;;;6.70;99.90;;;;;;5055779;28;20425;-83
2022/01/22 10:20:26;;;;;;;7.63;2.87;;;6.80;99.90;;;;;;5056261;28;20497;-85
2022/01/22 10:22:55;;;;;;;8.10;3.57;;;6.80;99.90;;;;;;5056130;28;20410;-83
2022/01/22 10:25:33;;;;;;;5.40;2.87;;;6.80;99.90;;;;;;5055906;28;20499;-84
2022/01/22 10:28:01;;;;;;;6.77;2.57;;;6.80;99.90;;;;;;5054771;28;20965;-83
2022/01/22 10:30:35;;;;;;;7.87;3.80;;;6.90;99.90;;;;;;5056007;28;20416;-84
2022/01/22 10:35:47;;;;;;;7.00;3.70;;;6.90;99.90;;;;;;5055810;28;20458;-85
2022/01/22 10:38:13;;;;;;;10.03;3.43;;;6.90;99.90;;;;;;5056224;28;20406;-84
2022/01/22 10:40:41;;;;;;;6.33;3.13;;;6.90;99.90;;;;;;5055902;28;20924;-84
2022/01/22 10:43:33;;;;;;;6.73;2.70;;;7.00;99.90;;;;;;5055741;28;20171;-84
2022/01/22 10:48:39;;;;;;;6.73;3.13;;;7.00;99.90;;;;;;5054950;28;20502;-84
2022/01/22 10:51:08;;;;;;;6.60;2.77;;;7.00;99.90;;;;;;5037800;28;20450;-85
2022/01/22 10:53:49;;;;;;;6.90;2.87;;;7.00;99.90;;;;;;5056740;28;20774;-85
2022/01/22 10:56:17;;;;;;;7.90;3.23;;;7.00;99.90;;;;;;5055858;28;20416;-83
2022/01/22 10:59:02;;;;;;;8.17;4.13;;;7.00;99.90;;;;;;5055513;28;20414;-83
2022/01/22 11:01:30;;;;;;;9.13;4.03;;;6.90;99.90;;;;;;5055288;28;20484;-85
2022/01/22 11:04:10;;;;;;;7.83;3.50;;;7.00;99.90;;;;;;5054910;28;20413;-82
2022/01/22 11:06:38;;;;;;;6.00;2.70;;;7.00;99.90;;;;;;5053974;28;20426;-83
2022/01/22 11:09:05;;;;;;;7.93;4.30;;;7.00;99.90;;;;;;5067232;28;20422;-83
2022/01/22 11:11:36;;;;;;;9.67;4.20;;;6.90;99.90;;;;;;5071941;28;20867;-83
2022/01/22 11:14:02;;;;;;;10.97;4.03;;;6.60;99.90;;;;;;5074661;28;20408;-82
2022/01/22 11:16:28;;;;;;;10.97;5.80;;;7.00;99.90;;;;;;5074320;28;20421;-83
2022/01/22 11:18:55;;;;;;;9.03;4.57;;;7.00;99.90;;;;;;5073937;28;20446;-84
2022/01/22 11:21:22;;;;;;;11.03;5.50;;;7.00;99.90;;;;;;5073299;28;20419;-84
2022/01/22 11:23:48;;;;;;;9.23;4.60;;;7.00;99.90;;;;;;5073358;28;20430;-83
2022/01/22 11:26:18;;;;;;;7.80;4.47;;;7.00;99.90;;;;;;5074404;28;20412;-85
2022/01/22 11:28:45;;;;;;;9.73;4.07;;;7.10;99.90;;;;;;5072908;28;20777;-83
2022/01/22 11:31:23;;;;;;;9.83;5.07;;;7.10;99.90;;;;;;5074183;28;20784;-83
2022/01/22 11:33:51;;;;;;;9.53;4.53;;;7.10;99.90;;;;;;5072550;28;20596;-83
2022/01/22 11:36:28;;;;;;;9.27;4.70;;;7.10;99.90;;;;;;5073951;28;20916;-83
2022/01/22 11:38:56;;;;;;;10.27;5.43;;;7.20;99.90;;;;;;5074081;28;20429;-83
2022/01/22 11:41:23;;;;;;;8.97;4.20;;;7.30;99.90;;;;;;5073020;28;20420;-83
2022/01/22 11:44:09;;;;;;;7.00;3.67;;;7.50;99.90;;;;;;5074232;28;20483;-85
2022/01/22 11:46:41;;;;;;;9.17;4.10;;;7.50;99.90;;;;;;5072726;28;20419;-84
2022/01/22 11:49:22;;;;;;;9.00;3.70;;;7.60;99.90;;;;;;5073793;28;20402;-84
2022/01/22 11:51:50;;;;;;;8.53;3.67;;;7.70;99.90;;;;;;5073765;28;21361;-83
2022/01/22 11:54:18;;;;;;;8.00;4.20;;;7.60;99.90;;;;;;5072621;28;20422;-83
2022/01/22 11:56:54;;;;;;;8.20;3.93;;;7.70;99.90;;;;;;5073724;28;20447;-84
2022/01/22 11:59:31;;;;;;;8.87;3.77;;;7.80;99.90;;;;;;5073835;28;20424;-84
2022/01/22 12:02:02;;;;;;;8.83;3.00;;;7.80;99.90;;;;;;5067889;28;20956;-84
2022/01/22 12:04:45;;;;;;;5.90;2.83;;;7.80;99.90;;;;;;5073324;28;20418;-84
2022/01/22 12:07:15;;;;;;;3.73;3.20;;;7.70;99.90;;;;;;5073767;28;20769;-85
2022/01/22 12:15:22;;;;;;;4.67;2.00;;;7.50;99.90;;;;;;5073691;28;20449;-83
2022/01/22 12:18:01;;;;;;;3.70;1.80;;;7.40;99.90;;;;;;5073057;28;20419;-83
2022/01/22 12:23:08;;;;;;;2.03;1.40;;;7.40;99.90;;;;;;5072763;28;20410;-83
2022/01/22 12:25:33;;;;;;;3.40;1.33;;;7.30;99.90;;;;;;5073191;28;20418;-84
2022/01/22 12:27:59;;;;;;;5.43;1.53;;;7.30;99.90;;;;;;5072979;28;20663;-84
2022/01/22 12:30:39;;;;;;;5.13;1.70;;;7.30;99.90;;;;;;5071906;28;20253;-84
2022/01/22 12:33:10;;;;;;;4.73;1.70;;;7.40;99.90;;;;;;5072720;28;20299;-82
2022/01/22 12:35:47;;;;;;;4.23;2.20;;;7.40;99.90;;;;;;5073146;28;20452;-83
2022/01/22 12:38:34;;;;;;;4.53;2.13;;;7.40;99.90;;;;;;5073001;28;20427;-83
2022/01/22 12:41:27;;;;;;;4.27;2.33;;;7.40;99.90;;;;;;5073201;28;20496;-84
2022/01/22 12:44:07;;;;;;;4.60;2.73;;;7.40;99.90;;;;;;5072656;28;20420;-83
2022/01/22 12:46:34;;;;;;;7.90;3.07;;;7.50;99.90;;;;;;5055169;28;20933;-84
2022/01/22 12:49:05;;;;;;;4.70;2.37;;;7.60;99.90;;;;;;5072377;28;20467;-84
2022/01/22 12:51:31;;;;;;;5.50;2.40;;;7.60;99.90;;;;;;5054679;28;20488;-83
2022/01/22 12:53:58;;;;;;;9.50;2.73;;;7.60;99.90;;;;;;5054663;28;20466;-84
2022/01/22 12:57:09;;;;;;;5.30;2.50;;;7.50;99.90;;;;;;5072492;28;20440;-83
2022/01/22 12:59:10;;;;;;;7.63;2.97;;;7.50;99.90;;;;;;5065223;28;20460;-85
2022/01/22 13:01:42;;;;;;;6.30;1.90;;;7.40;99.90;;;;;;5072612;28;20420;-84
2022/01/22 13:04:08;;;;;;;2.40;1.40;;;7.50;99.90;;;;;;5072409;28;20655;-85
2022/01/22 13:06:45;;;;;;;5.80;1.67;;;7.60;99.90;;;;;;5072539;28;20409;-84
2022/01/22 13:09:12;;;;;;;6.20;1.67;;;7.60;99.90;;;;;;5072622;28;20425;-84
2022/01/22 13:11:49;;;;;;;3.07;1.20;;;7.50;99.90;;;;;;5072497;28;20464;-83
2022/01/22 13:14:17;;;;;;;5.43;2.10;;;7.50;99.90;;;;;;5072583;28;20406;-83
2022/01/22 13:16:51;;;;;;;2.37;1.73;;;7.50;99.90;;;;;;5072282;28;20414;-83
2022/01/22 13:19:17;;;;;;;3.83;1.50;;;7.40;99.90;;;;;;5054223;28;20764;-83
2022/01/22 13:22:00;;;;;;;3.67;1.60;;;7.40;99.90;;;;;;5072363;28;20914;-84
2022/01/22 13:24:28;;;;;;;4.57;1.20;;;7.40;99.90;;;;;;5072422;28;20467;-84
2022/01/22 13:27:02;;;;;;;3.07;2.50;;;7.50;99.90;;;;;;5072119;28;20410;-84
2022/01/22 13:29:28;;;;;;;2.90;1.87;;;7.40;99.90;;;;;;5103975;22;20498;-82
2022/01/22 13:32:02;;;;;;;4.10;2.20;;;7.40;99.90;;;;;;5071507;28;20481;-87
2022/01/22 13:34:43;;;;;;;4.93;2.80;;;7.50;99.90;;;;;;5063020;28;20259;-85
2022/01/22 13:47:43;;;;;;;7.93;1.73;;;7.60;99.90;;;;;;5072596;28;20475;-85
2022/01/22 13:48:26;;;;;;;4.33;2.77;;;7.60;99.90;;;;;;5071777;28;20426;-85
2022/01/22 13:50:53;;;;;;;3.90;2.20;;;7.50;99.90;;;;;;5072180;28;20462;-85
2022/01/22 13:53:19;;;;;;;6.43;2.83;;;7.50;99.90;;;;;;5072061;28;20753;-85
2022/01/22 13:55:57;;;;;;;4.60;3.00;;;7.50;99.90;;;;;;5072179;28;20405;-85
2022/01/22 13:58:22;;;;;;;3.93;2.10;;;7.50;99.90;;;;;;5072056;28;20412;-84
2022/01/22 14:00:48;;;;;;;10.60;2.77;;;7.50;99.90;;;;;;5076113;28;20420;-84
2022/01/22 14:03:31;;;;;;;4.00;1.20;;;7.40;99.90;;;;;;5091881;28;20177;-84
2022/01/22 14:05:57;;;;;;;2.87;1.20;;;7.40;99.90;;;;;;5092411;28;20170;-86
2022/01/22 14:08:33;;;;;;;3.23;1.60;;;7.30;99.90;;;;;;5092172;28;20507;-85
2022/01/22 14:11:07;;;;;;;3.63;1.07;;;7.30;99.90;;;;;;5092365;28;20415;-85
2022/01/22 14:13:33;;;;;;;2.60;1.03;;;7.20;99.90;;;;;;5092136;28;20431;-85
2022/01/22 14:16:22;;;;;;;2.73;1.50;;;7.20;99.90;;;;;;5092226;28;20805;-84
2022/01/22 14:18:47;;;;;;;3.10;1.37;;;7.10;99.90;;;;;;5091702;28;21047;-84
2022/01/22 14:21:21;;;;;;;3.20;0.90;;;7.10;99.90;;;;;;5091989;28;20415;-85
2022/01/22 14:23:50;;;;;;;1.10;0.90;;;7.10;99.90;;;;;;5092229;28;20530;-85
2022/01/22 14:26:27;;;;;;;2.43;0.50;;;7.10;99.90;;;;;;5074118;28;20518;-85
2022/01/22 14:28:58;;;;;;;1.33;0.70;;;7.00;99.90;;;;;;5092208;28;20411;-85
2022/01/22 14:31:44;;;;;;;3.23;0.73;;;7.00;99.90;;;;;;5073568;28;20994;-85
2022/01/22 14:34:36;;;;;;;2.53;1.27;;;7.00;99.90;;;;;;5091955;28;20450;-85
2022/01/22 14:37:05;;;;;;;1.60;0.70;;;6.90;99.90;;;;;;5092030;28;20413;-85
2022/01/22 14:44:00;;;;;;;2.27;0.53;;;7.00;99.90;;;;;;5091970;28;20415;-84
2022/01/22 14:45:11;;;;;;;1.27;0.60;;;6.80;99.90;;;;;;5093432;28;20402;-85
2022/01/22 14:47:36;;;;;;;1.87;0.47;;;6.60;99.90;;;;;;5095027;28;20463;-84
2022/01/22 14:50:07;;;;;;;2.33;0.93;;;6.60;99.90;;;;;;5095489;28;20462;-85
2022/01/22 14:52:32;;;;;;;2.43;0.70;;;6.50;99.90;;;;;;5077228;28;20300;-85